Wunstorf, Germany

9:46 AM CET on February 11, 2016 (GMT +0100)
Wunstorf Air Base | | Change Station
CLOSE
Current Station
Airport
Location: Wunstorf,
Elevation: 187 ft
Nearby Weather Stations

Elev 187 ft 52.46 °N, 9.43 °E | Updated 26 minutes ago

Scattered Clouds
Scattered Clouds
37 °F
Feels Like 29 °F
N
13
Wind Variable Wind from SSW

Today
High -- | Low -- °F
--% Chance of Precip.
Yesterday
High -- | Low -- °F
Precip. -- in
Pressure 29.56 in
Visibility 6.2 miles
Clouds Few 2800 ft
Scattered Clouds 6000 ft
Windchill 29 °F
Dew Point 34 °F
Humidity 87%
Rainfall 0.00 in
Snow Depth Not available.
7:47 AM 5:26 PM
Waxing Crescent, 10% visible
METAR ETNW 110820Z 21011KT 9999 FEW028 SCT060 03/01 Q1001 BLU+BLU+ TEMPO WHT
Pressure 29.56 in
Visibility 6.2 miles
Clouds Few 2800 ft
Scattered Clouds 6000 ft
Windchill 29 °F
Dew Point 34 °F
Humidity 87%
Rainfall 0.00 in
Snow Depth Not available.
7:47 AM 5:26 PM
Waxing Crescent, 10% visible
METAR ETNW 110820Z 21011KT 9999 FEW028 SCT060 03/01 Q1001 BLU+BLU+ TEMPO WHT

10-Day Weather Forecast

Almanac

Astronomy

Feb. 11, 2016 Rise Set
Actual Time
Civil Twilight
Nautical Twilight
Astronomical Twilight
Moon
Length of Visible Light
Length of Day
Tomorrow will be .
, % of the Moon is Illuminated

Today's Extremes

Country Highs Country Lows

Community

WunderPhotos

Upload Photos

1,892,030 photos uploaded!

WunderBlog® & News

Nearby

Air Quality

  Air Quality AQ Index Pollutant
Not available.

Snow Depth

Station Depth Elevation

Earthquake Activity

City Distance Mag. Time & Date
Minimum magnitude displayed is 2.5.

Coastal Water Temperatures

Place Temperature

Stations

Nearby Weather Stations

Station Location Temp. Windchill Dew Point Humidity Wind Precip. Elev Updated Type